sensor_id;sensor_type;location;lat;lon;timestamp;P1;durP1;ratioP1;P2;durP2;ratioP2
75417;SDS011;63997;52.112;5.420;2023-04-24T00:00:32;2.53;;;0.22;;
75417;SDS011;63997;52.112;5.420;2023-04-24T00:02:58;1.27;;;0.50;;
75417;SDS011;63997;52.112;5.420;2023-04-24T00:05:25;0.82;;;0.30;;
75417;SDS011;63997;52.112;5.420;2023-04-24T00:07:51;0.82;;;0.40;;
75417;SDS011;63997;52.112;5.420;2023-04-24T00:10:21;0.60;;;0.30;;
75417;SDS011;63997;52.112;5.420;2023-04-24T00:12:48;0.68;;;0.40;;
75417;SDS011;63997;52.112;5.420;2023-04-24T00:15:14;0.70;;;0.60;;
75417;SDS011;63997;52.112;5.420;2023-04-24T00:17:41;0.60;;;0.47;;
75417;SDS011;63997;52.112;5.420;2023-04-24T00:20:07;1.20;;;1.00;;
75417;SDS011;63997;52.112;5.420;2023-04-24T00:22:34;0.90;;;0.40;;
75417;SDS011;63997;52.112;5.420;2023-04-24T00:25:00;1.08;;;0.70;;
75417;SDS011;63997;52.112;5.420;2023-04-24T00:27:26;1.33;;;0.70;;
75417;SDS011;63997;52.112;5.420;2023-04-24T00:29:53;0.88;;;0.80;;
75417;SDS011;63997;52.112;5.420;2023-04-24T00:32:19;1.38;;;0.77;;
75417;SDS011;63997;52.112;5.420;2023-04-24T00:34:46;1.97;;;0.93;;
75417;SDS011;63997;52.112;5.420;2023-04-24T00:37:12;1.17;;;0.80;;
75417;SDS011;63997;52.112;5.420;2023-04-24T00:39:38;1.02;;;0.90;;
75417;SDS011;63997;52.112;5.420;2023-04-24T00:42:05;1.02;;;0.80;;
75417;SDS011;63997;52.112;5.420;2023-04-24T00:44:32;4.25;;;0.90;;
75417;SDS011;63997;52.112;5.420;2023-04-24T00:47:00;1.30;;;1.10;;
75417;SDS011;63997;52.112;5.420;2023-04-24T00:49:27;1.92;;;1.00;;
75417;SDS011;63997;52.112;5.420;2023-04-24T00:51:53;1.60;;;1.10;;
75417;SDS011;63997;52.112;5.420;2023-04-24T00:54:22;1.50;;;1.40;;
75417;SDS011;63997;52.112;5.420;2023-04-24T00:56:49;2.20;;;1.20;;
75417;SDS011;63997;52.112;5.420;2023-04-24T00:59:17;2.23;;;1.30;;
75417;SDS011;63997;52.112;5.420;2023-04-24T01:01:44;3.15;;;1.50;;
75417;SDS011;63997;52.112;5.420;2023-04-24T01:04:11;3.08;;;1.33;;
75417;SDS011;63997;52.112;5.420;2023-04-24T01:06:39;2.10;;;1.48;;
75417;SDS011;63997;52.112;5.420;2023-04-24T01:09:06;2.22;;;1.33;;
75417;SDS011;63997;52.112;5.420;2023-04-24T01:11:36;2.10;;;1.90;;
75417;SDS011;63997;52.112;5.420;2023-04-24T01:14:03;1.77;;;1.52;;
75417;SDS011;63997;52.112;5.420;2023-04-24T01:16:29;4.03;;;1.65;;
75417;SDS011;63997;52.112;5.420;2023-04-24T01:18:56;3.85;;;1.80;;
75417;SDS011;63997;52.112;5.420;2023-04-24T01:21:23;3.38;;;1.55;;
75417;SDS011;63997;52.112;5.420;2023-04-24T01:23:53;3.17;;;1.67;;
75417;SDS011;63997;52.112;5.420;2023-04-24T01:26:21;2.75;;;1.92;;
75417;SDS011;63997;52.112;5.420;2023-04-24T01:28:48;4.20;;;2.30;;
75417;SDS011;63997;52.112;5.420;2023-04-24T01:31:15;3.00;;;2.35;;
75417;SDS011;63997;52.112;5.420;2023-04-24T01:33:42;3.50;;;2.60;;
75417;SDS011;63997;52.112;5.420;2023-04-24T01:36:12;2.40;;;2.20;;
75417;SDS011;63997;52.112;5.420;2023-04-24T01:38:40;3.25;;;2.13;;
75417;SDS011;63997;52.112;5.420;2023-04-24T01:41:06;2.40;;;2.20;;
75417;SDS011;63997;52.112;5.420;2023-04-24T01:43:33;2.40;;;2.05;;
75417;SDS011;63997;52.112;5.420;2023-04-24T01:45:59;3.63;;;2.55;;
75417;SDS011;63997;52.112;5.420;2023-04-24T01:48:26;2.63;;;2.43;;
75417;SDS011;63997;52.112;5.420;2023-04-24T01:50:53;5.15;;;2.90;;
75417;SDS011;63997;52.112;5.420;2023-04-24T01:53:19;4.10;;;2.90;;
75417;SDS011;63997;52.112;5.420;2023-04-24T01:55:45;2.85;;;2.55;;
75417;SDS011;63997;52.112;5.420;2023-04-24T01:58:12;3.70;;;3.00;;
75417;SDS011;63997;52.112;5.420;2023-04-24T02:00:39;3.90;;;3.33;;
75417;SDS011;63997;52.112;5.420;2023-04-24T02:03:05;5.20;;;2.55;;
75417;SDS011;63997;52.112;5.420;2023-04-24T02:05:32;4.10;;;2.38;;
75417;SDS011;63997;52.112;5.420;2023-04-24T02:07:58;3.38;;;1.95;;
75417;SDS011;63997;52.112;5.420;2023-04-24T02:10:25;1.73;;;1.42;;
75417;SDS011;63997;52.112;5.420;2023-04-24T02:12:51;1.70;;;1.53;;
75417;SDS011;63997;52.112;5.420;2023-04-24T02:15:17;1.70;;;1.30;;
75417;SDS011;63997;52.112;5.420;2023-04-24T02:17:44;1.70;;;1.30;;
75417;SDS011;63997;52.112;5.420;2023-04-24T02:20:10;2.03;;;1.63;;
75417;SDS011;63997;52.112;5.420;2023-04-24T02:22:37;4.22;;;2.20;;
75417;SDS011;63997;52.112;5.420;2023-04-24T02:25:03;2.30;;;1.83;;
75417;SDS011;63997;52.112;5.420;2023-04-24T02:27:31;2.80;;;2.08;;
75417;SDS011;63997;52.112;5.420;2023-04-24T02:29:57;2.90;;;2.10;;
75417;SDS011;63997;52.112;5.420;2023-04-24T02:32:23;3.25;;;2.10;;
75417;SDS011;63997;52.112;5.420;2023-04-24T02:34:50;2.13;;;1.60;;
75417;SDS011;63997;52.112;5.420;2023-04-24T02:37:16;5.40;;;2.40;;
75417;SDS011;63997;52.112;5.420;2023-04-24T02:39:42;2.42;;;2.22;;
75417;SDS011;63997;52.112;5.420;2023-04-24T02:42:09;3.00;;;2.30;;
75417;SDS011;63997;52.112;5.420;2023-04-24T02:44:35;3.17;;;1.90;;
75417;SDS011;63997;52.112;5.420;2023-04-24T02:47:02;3.00;;;2.38;;
75417;SDS011;63997;52.112;5.420;2023-04-24T02:49:29;2.70;;;2.30;;
75417;SDS011;63997;52.112;5.420;2023-04-24T02:51:56;2.97;;;2.25;;
75417;SDS011;63997;52.112;5.420;2023-04-24T02:54:22;4.30;;;2.47;;
75417;SDS011;63997;52.112;5.420;2023-04-24T02:56:48;2.50;;;2.15;;
75417;SDS011;63997;52.112;5.420;2023-04-24T02:59:15;3.50;;;2.38;;
75417;SDS011;63997;52.112;5.420;2023-04-24T03:01:42;3.20;;;2.60;;
75417;SDS011;63997;52.112;5.420;2023-04-24T03:04:08;2.47;;;2.28;;
75417;SDS011;63997;52.112;5.420;2023-04-24T03:06:35;3.00;;;2.50;;
75417;SDS011;63997;52.112;5.420;2023-04-24T03:09:02;3.22;;;2.30;;
75417;SDS011;63997;52.112;5.420;2023-04-24T03:11:29;4.95;;;2.70;;
75417;SDS011;63997;52.112;5.420;2023-04-24T03:13:56;2.87;;;2.23;;
75417;SDS011;63997;52.112;5.420;2023-04-24T03:16:22;3.88;;;2.17;;
75417;SDS011;63997;52.112;5.420;2023-04-24T03:18:48;3.22;;;2.65;;
75417;SDS011;63997;52.112;5.420;2023-04-24T03:21:15;4.47;;;2.40;;
75417;SDS011;63997;52.112;5.420;2023-04-24T03:23:41;3.22;;;2.20;;
75417;SDS011;63997;52.112;5.420;2023-04-24T03:26:07;3.00;;;2.17;;
75417;SDS011;63997;52.112;5.420;2023-04-24T03:28:34;5.07;;;2.45;;
75417;SDS011;63997;52.112;5.420;2023-04-24T03:31:00;4.25;;;1.98;;
75417;SDS011;63997;52.112;5.420;2023-04-24T03:33:27;3.58;;;2.47;;
75417;SDS011;63997;52.112;5.420;2023-04-24T03:35:53;2.80;;;2.25;;
75417;SDS011;63997;52.112;5.420;2023-04-24T03:38:19;4.40;;;2.80;;
75417;SDS011;63997;52.112;5.420;2023-04-24T03:40:46;5.28;;;2.17;;
75417;SDS011;63997;52.112;5.420;2023-04-24T03:43:12;3.50;;;2.50;;
75417;SDS011;63997;52.112;5.420;2023-04-24T03:45:39;4.45;;;2.72;;
75417;SDS011;63997;52.112;5.420;2023-04-24T03:48:05;5.05;;;2.58;;
75417;SDS011;63997;52.112;5.420;2023-04-24T03:50:32;3.23;;;2.30;;
75417;SDS011;63997;52.112;5.420;2023-04-24T03:52:58;4.80;;;2.80;;
75417;SDS011;63997;52.112;5.420;2023-04-24T03:55:24;3.03;;;2.40;;
75417;SDS011;63997;52.112;5.420;2023-04-24T03:57:51;5.85;;;2.83;;
75417;SDS011;63997;52.112;5.420;2023-04-24T04:00:17;4.47;;;2.67;;
75417;SDS011;63997;52.112;5.420;2023-04-24T04:02:44;4.73;;;2.60;;
75417;SDS011;63997;52.112;5.420;2023-04-24T04:05:11;4.70;;;2.90;;
75417;SDS011;63997;52.112;5.420;2023-04-24T04:07:37;4.07;;;2.40;;
75417;SDS011;63997;52.112;5.420;2023-04-24T04:10:04;3.78;;;2.85;;
75417;SDS011;63997;52.112;5.420;2023-04-24T04:12:33;3.45;;;2.45;;
75417;SDS011;63997;52.112;5.420;2023-04-24T04:14:59;3.67;;;2.40;;
75417;SDS011;63997;52.112;5.420;2023-04-24T04:17:26;3.22;;;2.72;;
75417;SDS011;63997;52.112;5.420;2023-04-24T04:19:52;4.53;;;2.50;;
75417;SDS011;63997;52.112;5.420;2023-04-24T04:22:18;4.68;;;2.92;;
75417;SDS011;63997;52.112;5.420;2023-04-24T04:24:45;3.40;;;2.88;;
75417;SDS011;63997;52.112;5.420;2023-04-24T04:27:12;4.53;;;2.83;;
75417;SDS011;63997;52.112;5.420;2023-04-24T04:29:39;4.55;;;3.15;;
75417;SDS011;63997;52.112;5.420;2023-04-24T04:32:06;4.55;;;2.70;;
75417;SDS011;63997;52.112;5.420;2023-04-24T04:34:33;4.07;;;3.15;;
75417;SDS011;63997;52.112;5.420;2023-04-24T04:36:59;3.83;;;2.85;;
75417;SDS011;63997;52.112;5.420;2023-04-24T04:39:27;4.30;;;3.00;;
75417;SDS011;63997;52.112;5.420;2023-04-24T04:41:57;3.90;;;3.15;;
75417;SDS011;63997;52.112;5.420;2023-04-24T04:44:24;5.90;;;3.33;;
75417;SDS011;63997;52.112;5.420;2023-04-24T04:46:53;3.40;;;2.90;;
75417;SDS011;63997;52.112;5.420;2023-04-24T04:49:22;4.90;;;2.58;;
75417;SDS011;63997;52.112;5.420;2023-04-24T04:51:49;3.63;;;2.43;;
75417;SDS011;63997;52.112;5.420;2023-04-24T04:54:16;3.92;;;2.67;;
75417;SDS011;63997;52.112;5.420;2023-04-24T04:56:43;4.18;;;2.20;;
75417;SDS011;63997;52.112;5.420;2023-04-24T04:59:09;3.42;;;2.53;;
75417;SDS011;63997;52.112;5.420;2023-04-24T05:01:37;7.07;;;2.65;;
75417;SDS011;63997;52.112;5.420;2023-04-24T05:04:03;3.63;;;2.77;;
75417;SDS011;63997;52.112;5.420;2023-04-24T05:06:30;4.68;;;2.55;;
75417;SDS011;63997;52.112;5.420;2023-04-24T05:08:56;3.70;;;2.75;;
75417;SDS011;63997;52.112;5.420;2023-04-24T05:11:23;3.78;;;2.80;;
75417;SDS011;63997;52.112;5.420;2023-04-24T05:13:50;4.28;;;2.70;;
75417;SDS011;63997;52.112;5.420;2023-04-24T05:16:16;4.40;;;2.90;;
75417;SDS011;63997;52.112;5.420;2023-04-24T05:18:42;3.75;;;2.97;;
75417;SDS011;63997;52.112;5.420;2023-04-24T05:21:09;3.55;;;2.60;;
75417;SDS011;63997;52.112;5.420;2023-04-24T05:23:35;4.80;;;2.83;;
75417;SDS011;63997;52.112;5.420;2023-04-24T05:26:02;4.22;;;3.30;;
75417;SDS011;63997;52.112;5.420;2023-04-24T05:28:30;4.00;;;3.03;;
75417;SDS011;63997;52.112;5.420;2023-04-24T05:30:57;3.60;;;2.47;;
75417;SDS011;63997;52.112;5.420;2023-04-24T05:33:25;4.50;;;3.20;;
75417;SDS011;63997;52.112;5.420;2023-04-24T05:35:51;4.35;;;2.30;;
75417;SDS011;63997;52.112;5.420;2023-04-24T05:38:18;3.95;;;2.50;;
75417;SDS011;63997;52.112;5.420;2023-04-24T05:40:45;3.07;;;1.90;;
75417;SDS011;63997;52.112;5.420;2023-04-24T05:43:12;5.97;;;1.83;;
75417;SDS011;63997;52.112;5.420;2023-04-24T05:45:38;2.75;;;1.77;;
75417;SDS011;63997;52.112;5.420;2023-04-24T05:48:05;2.92;;;1.73;;
75417;SDS011;63997;52.112;5.420;2023-04-24T05:50:32;4.82;;;2.17;;
75417;SDS011;63997;52.112;5.420;2023-04-24T05:53:01;3.50;;;2.07;;
75417;SDS011;63997;52.112;5.420;2023-04-24T05:55:28;2.80;;;1.55;;
75417;SDS011;63997;52.112;5.420;2023-04-24T05:57:56;2.60;;;1.90;;
75417;SDS011;63997;52.112;5.420;2023-04-24T06:00:23;3.70;;;2.20;;
75417;SDS011;63997;52.112;5.420;2023-04-24T06:02:50;3.50;;;1.40;;
75417;SDS011;63997;52.112;5.420;2023-04-24T06:05:18;2.50;;;1.23;;
75417;SDS011;63997;52.112;5.420;2023-04-24T06:07:44;3.15;;;1.20;;
75417;SDS011;63997;52.112;5.420;2023-04-24T06:10:11;1.60;;;0.85;;
75417;SDS011;63997;52.112;5.420;2023-04-24T06:12:37;2.13;;;0.80;;
75417;SDS011;63997;52.112;5.420;2023-04-24T06:15:04;0.98;;;0.57;;
75417;SDS011;63997;52.112;5.420;2023-04-24T06:17:33;2.47;;;0.50;;
75417;SDS011;63997;52.112;5.420;2023-04-24T06:19:59;1.98;;;0.45;;
75417;SDS011;63997;52.112;5.420;2023-04-24T06:22:25;1.00;;;0.60;;
75417;SDS011;63997;52.112;5.420;2023-04-24T06:24:52;1.33;;;0.40;;
75417;SDS011;63997;52.112;5.420;2023-04-24T06:27:18;1.52;;;0.32;;
75417;SDS011;63997;52.112;5.420;2023-04-24T06:29:45;3.13;;;0.20;;
75417;SDS011;63997;52.112;5.420;2023-04-24T06:32:11;0.20;;;0.10;;
75417;SDS011;63997;52.112;5.420;2023-04-24T06:34:37;0.57;;;0.20;;
75417;SDS011;63997;52.112;5.420;2023-04-24T06:37:04;1.75;;;0.20;;
75417;SDS011;63997;52.112;5.420;2023-04-24T06:39:30;0.85;;;0.52;;
75417;SDS011;63997;52.112;5.420;2023-04-24T06:41:57;0.63;;;0.27;;
75417;SDS011;63997;52.112;5.420;2023-04-24T06:44:23;0.75;;;0.20;;
75417;SDS011;63997;52.112;5.420;2023-04-24T06:46:49;3.08;;;0.77;;
75417;SDS011;63997;52.112;5.420;2023-04-24T06:49:16;4.45;;;1.48;;
75417;SDS011;63997;52.112;5.420;2023-04-24T06:51:42;4.80;;;2.40;;
75417;SDS011;63997;52.112;5.420;2023-04-24T06:54:09;6.00;;;2.47;;
75417;SDS011;63997;52.112;5.420;2023-04-24T06:56:35;5.82;;;3.47;;
75417;SDS011;63997;52.112;5.420;2023-04-24T06:59:01;8.00;;;3.95;;
75417;SDS011;63997;52.112;5.420;2023-04-24T07:01:28;6.93;;;3.90;;
75417;SDS011;63997;52.112;5.420;2023-04-24T07:03:54;5.47;;;3.80;;
75417;SDS011;63997;52.112;5.420;2023-04-24T07:06:21;8.03;;;3.50;;
75417;SDS011;63997;52.112;5.420;2023-04-24T07:08:48;7.07;;;3.90;;
75417;SDS011;63997;52.112;5.420;2023-04-24T07:11:15;7.97;;;3.83;;
75417;SDS011;63997;52.112;5.420;2023-04-24T07:13:41;11.20;;;4.22;;
75417;SDS011;63997;52.112;5.420;2023-04-24T07:16:08;7.10;;;4.40;;
75417;SDS011;63997;52.112;5.420;2023-04-24T07:18:35;7.80;;;4.57;;
75417;SDS011;63997;52.112;5.420;2023-04-24T07:21:02;7.28;;;4.50;;
75417;SDS011;63997;52.112;5.420;2023-04-24T07:23:29;11.75;;;4.28;;
75417;SDS011;63997;52.112;5.420;2023-04-24T07:25:55;8.27;;;4.88;;
75417;SDS011;63997;52.112;5.420;2023-04-24T07:28:21;6.95;;;4.63;;
75417;SDS011;63997;52.112;5.420;2023-04-24T07:30:48;9.53;;;4.33;;
75417;SDS011;63997;52.112;5.420;2023-04-24T07:33:14;10.02;;;4.88;;
75417;SDS011;63997;52.112;5.420;2023-04-24T07:35:41;5.20;;;4.28;;
75417;SDS011;63997;52.112;5.420;2023-04-24T07:38:08;11.00;;;4.43;;
75417;SDS011;63997;52.112;5.420;2023-04-24T07:40:34;5.97;;;4.30;;
75417;SDS011;63997;52.112;5.420;2023-04-24T07:43:01;6.57;;;4.70;;
75417;SDS011;63997;52.112;5.420;2023-04-24T07:45:27;14.13;;;4.72;;
75417;SDS011;63997;52.112;5.420;2023-04-24T07:47:54;7.00;;;3.65;;
75417;SDS011;63997;52.112;5.420;2023-04-24T07:50:20;7.53;;;3.85;;
75417;SDS011;63997;52.112;5.420;2023-04-24T07:52:48;6.78;;;3.55;;
75417;SDS011;63997;52.112;5.420;2023-04-24T07:55:14;8.03;;;4.20;;
75417;SDS011;63997;52.112;5.420;2023-04-24T07:57:41;6.35;;;3.13;;
75417;SDS011;63997;52.112;5.420;2023-04-24T08:00:07;9.55;;;4.15;;
75417;SDS011;63997;52.112;5.420;2023-04-24T08:02:34;9.98;;;4.03;;
75417;SDS011;63997;52.112;5.420;2023-04-24T08:05:01;11.30;;;4.28;;
75417;SDS011;63997;52.112;5.420;2023-04-24T08:07:29;6.67;;;4.27;;
75417;SDS011;63997;52.112;5.420;2023-04-24T08:09:55;10.32;;;4.15;;
75417;SDS011;63997;52.112;5.420;2023-04-24T08:12:22;9.80;;;4.15;;
75417;SDS011;63997;52.112;5.420;2023-04-24T08:14:48;8.82;;;3.97;;
75417;SDS011;63997;52.112;5.420;2023-04-24T08:17:14;4.95;;;3.08;;
75417;SDS011;63997;52.112;5.420;2023-04-24T08:19:43;9.20;;;2.90;;
75417;SDS011;63997;52.112;5.420;2023-04-24T08:22:16;8.27;;;3.67;;
75417;SDS011;63997;52.112;5.420;2023-04-24T08:24:43;10.65;;;3.90;;
75417;SDS011;63997;52.112;5.420;2023-04-24T08:27:11;8.80;;;2.88;;
75417;SDS011;63997;52.112;5.420;2023-04-24T08:29:37;3.58;;;2.03;;
75417;SDS011;63997;52.112;5.420;2023-04-24T08:32:03;8.63;;;2.07;;
75417;SDS011;63997;52.112;5.420;2023-04-24T08:34:30;7.38;;;2.33;;
75417;SDS011;63997;52.112;5.420;2023-04-24T08:36:57;8.95;;;1.75;;
75417;SDS011;63997;52.112;5.420;2023-04-24T08:39:24;9.30;;;1.58;;
75417;SDS011;63997;52.112;5.420;2023-04-24T08:41:50;10.32;;;2.00;;
75417;SDS011;63997;52.112;5.420;2023-04-24T08:44:19;13.73;;;1.73;;
75417;SDS011;63997;52.112;5.420;2023-04-24T08:46:46;10.35;;;1.40;;
75417;SDS011;63997;52.112;5.420;2023-04-24T08:49:15;9.27;;;2.10;;
75417;SDS011;63997;52.112;5.420;2023-04-24T08:51:42;7.53;;;1.83;;
75417;SDS011;63997;52.112;5.420;2023-04-24T08:54:10;6.07;;;1.35;;
75417;SDS011;63997;52.112;5.420;2023-04-24T08:56:38;6.83;;;1.60;;
75417;SDS011;63997;52.112;5.420;2023-04-24T08:59:06;8.48;;;1.58;;
75417;SDS011;63997;52.112;5.420;2023-04-24T09:01:33;8.45;;;1.20;;
75417;SDS011;63997;52.112;5.420;2023-04-24T09:04:02;9.57;;;1.48;;
75417;SDS011;63997;52.112;5.420;2023-04-24T09:06:30;4.55;;;0.88;;
75417;SDS011;63997;52.112;5.420;2023-04-24T09:09:01;4.87;;;0.90;;
75417;SDS011;63997;52.112;5.420;2023-04-24T09:11:28;3.17;;;0.85;;
75417;SDS011;63997;52.112;5.420;2023-04-24T09:13:56;5.18;;;1.15;;
75417;SDS011;63997;52.112;5.420;2023-04-24T09:16:24;6.88;;;1.67;;
75417;SDS011;63997;52.112;5.420;2023-04-24T09:18:52;8.00;;;1.25;;
75417;SDS011;63997;52.112;5.420;2023-04-24T09:21:20;4.63;;;1.33;;
75417;SDS011;63997;52.112;5.420;2023-04-24T09:23:57;7.40;;;1.13;;
75417;SDS011;63997;52.112;5.420;2023-04-24T09:26:25;4.53;;;1.00;;
75417;SDS011;63997;52.112;5.420;2023-04-24T09:28:53;5.65;;;1.33;;
75417;SDS011;63997;52.112;5.420;2023-04-24T09:31:19;7.65;;;1.27;;
75417;SDS011;63997;52.112;5.420;2023-04-24T09:33:57;6.23;;;1.03;;
75417;SDS011;63997;52.112;5.420;2023-04-24T09:39:05;8.95;;;1.10;;
75417;SDS011;63997;52.112;5.420;2023-04-24T09:41:46;7.38;;;1.65;;
75417;SDS011;63997;52.112;5.420;2023-04-24T09:44:19;8.70;;;1.38;;
75417;SDS011;63997;52.112;5.420;2023-04-24T09:46:54;4.50;;;1.13;;
75417;SDS011;63997;52.112;5.420;2023-04-24T09:49:29;9.95;;;1.73;;
75417;SDS011;63997;52.112;5.420;2023-04-24T09:52:03;5.97;;;1.15;;
75417;SDS011;63997;52.112;5.420;2023-04-24T09:54:29;5.97;;;1.27;;
75417;SDS011;63997;52.112;5.420;2023-04-24T09:56:56;4.65;;;1.33;;
75417;SDS011;63997;52.112;5.420;2023-04-24T09:59:23;8.10;;;1.07;;
75417;SDS011;63997;52.112;5.420;2023-04-24T10:01:50;5.57;;;1.05;;
75417;SDS011;63997;52.112;5.420;2023-04-24T10:04:20;5.70;;;1.08;;
75417;SDS011;63997;52.112;5.420;2023-04-24T10:06:48;5.68;;;1.23;;
75417;SDS011;63997;52.112;5.420;2023-04-24T10:09:17;3.75;;;0.90;;
75417;SDS011;63997;52.112;5.420;2023-04-24T10:11:48;4.97;;;1.00;;
75417;SDS011;63997;52.112;5.420;2023-04-24T10:14:19;5.05;;;0.88;;
75417;SDS011;63997;52.112;5.420;2023-04-24T10:16:48;3.72;;;0.88;;
75417;SDS011;63997;52.112;5.420;2023-04-24T10:19:16;6.38;;;0.80;;
75417;SDS011;63997;52.112;5.420;2023-04-24T10:21:45;5.45;;;0.60;;
75417;SDS011;63997;52.112;5.420;2023-04-24T10:24:17;4.97;;;0.70;;
75417;SDS011;63997;52.112;5.420;2023-04-24T10:26:45;8.07;;;1.30;;
75417;SDS011;63997;52.112;5.420;2023-04-24T10:29:12;4.53;;;0.63;;
75417;SDS011;63997;52.112;5.420;2023-04-24T10:31:41;5.18;;;0.73;;
75417;SDS011;63997;52.112;5.420;2023-04-24T10:34:08;3.33;;;0.55;;
75417;SDS011;63997;52.112;5.420;2023-04-24T10:36:36;4.77;;;0.60;;
75417;SDS011;63997;52.112;5.420;2023-04-24T10:39:16;7.60;;;0.60;;
75417;SDS011;63997;52.112;5.420;2023-04-24T10:41:44;2.45;;;0.40;;
75417;SDS011;63997;52.112;5.420;2023-04-24T10:44:13;4.25;;;0.40;;
75417;SDS011;63997;52.112;5.420;2023-04-24T10:46:44;1.17;;;0.30;;
75417;SDS011;63997;52.112;5.420;2023-04-24T10:49:13;1.27;;;0.40;;
75417;SDS011;63997;52.112;5.420;2023-04-24T10:51:50;1.17;;;0.20;;
75417;SDS011;63997;52.112;5.420;2023-04-24T10:54:26;1.75;;;0.30;;
75417;SDS011;63997;52.112;5.420;2023-04-24T10:57:25;2.15;;;0.20;;
75417;SDS011;63997;52.112;5.420;2023-04-24T10:59:47;2.78;;;0.30;;
75417;SDS011;63997;52.112;5.420;2023-04-24T11:02:14;1.60;;;0.23;;
75417;SDS011;63997;52.112;5.420;2023-04-24T11:04:41;4.45;;;0.40;;
75417;SDS011;63997;52.112;5.420;2023-04-24T11:07:09;3.28;;;0.30;;
75417;SDS011;63997;52.112;5.420;2023-04-24T11:09:37;3.10;;;0.38;;
75417;SDS011;63997;52.112;5.420;2023-04-24T11:12:07;1.98;;;0.30;;
75417;SDS011;63997;52.112;5.420;2023-04-24T11:17:27;3.78;;;0.30;;
75417;SDS011;63997;52.112;5.420;2023-04-24T11:20:09;1.08;;;0.20;;
75417;SDS011;63997;52.112;5.420;2023-04-24T11:22:53;3.35;;;0.30;;
75417;SDS011;63997;52.112;5.420;2023-04-24T11:25:21;2.67;;;0.40;;
75417;SDS011;63997;52.112;5.420;2023-04-24T11:27:49;5.40;;;0.70;;
75417;SDS011;63997;52.112;5.420;2023-04-24T11:30:17;2.80;;;0.50;;
75417;SDS011;63997;52.112;5.420;2023-04-24T11:32:47;2.47;;;0.47;;
75417;SDS011;63997;52.112;5.420;2023-04-24T11:35:22;1.95;;;0.22;;
75417;SDS011;63997;52.112;5.420;2023-04-24T11:37:52;4.07;;;0.40;;
75417;SDS011;63997;52.112;5.420;2023-04-24T11:40:39;3.87;;;0.40;;
75417;SDS011;63997;52.112;5.420;2023-04-24T11:43:06;5.05;;;0.55;;
75417;SDS011;63997;52.112;5.420;2023-04-24T11:45:33;2.40;;;0.60;;
75417;SDS011;63997;52.112;5.420;2023-04-24T11:48:00;1.95;;;0.52;;
75417;SDS011;63997;52.112;5.420;2023-04-24T11:50:29;5.10;;;0.30;;
75417;SDS011;63997;52.112;5.420;2023-04-24T11:52:56;2.80;;;0.40;;
75417;SDS011;63997;52.112;5.420;2023-04-24T11:55:23;3.22;;;0.30;;
75417;SDS011;63997;52.112;5.420;2023-04-24T11:57:54;2.08;;;0.15;;
75417;SDS011;63997;52.112;5.420;2023-04-24T12:00:27;0.30;;;0.10;;
75417;SDS011;63997;52.112;5.420;2023-04-24T12:03:08;0.85;;;0.10;;
75417;SDS011;63997;52.112;5.420;2023-04-24T12:05:38;1.90;;;0.10;;
75417;SDS011;63997;52.112;5.420;2023-04-24T12:08:06;3.17;;;0.55;;
75417;SDS011;63997;52.112;5.420;2023-04-24T12:10:32;3.30;;;0.28;;
75417;SDS011;63997;52.112;5.420;2023-04-24T12:13:00;2.97;;;0.20;;
75417;SDS011;63997;52.112;5.420;2023-04-24T12:15:27;2.08;;;0.20;;
75417;SDS011;63997;52.112;5.420;2023-04-24T12:17:55;2.67;;;0.30;;
75417;SDS011;63997;52.112;5.420;2023-04-24T12:20:27;3.15;;;0.35;;
75417;SDS011;63997;52.112;5.420;2023-04-24T12:22:56;2.15;;;0.30;;
75417;SDS011;63997;52.112;5.420;2023-04-24T12:25:27;3.60;;;0.35;;
75417;SDS011;63997;52.112;5.420;2023-04-24T12:28:08;1.77;;;0.20;;
75417;SDS011;63997;52.112;5.420;2023-04-24T12:30:39;2.47;;;0.40;;
75417;SDS011;63997;52.112;5.420;2023-04-24T12:33:08;1.52;;;0.43;;
75417;SDS011;63997;52.112;5.420;2023-04-24T12:35:35;4.35;;;0.60;;
75417;SDS011;63997;52.112;5.420;2023-04-24T12:38:09;3.15;;;0.30;;
75417;SDS011;63997;52.112;5.420;2023-04-24T12:40:36;4.63;;;0.57;;
75417;SDS011;63997;52.112;5.420;2023-04-24T12:43:12;3.43;;;0.70;;
75417;SDS011;63997;52.112;5.420;2023-04-24T12:45:42;3.88;;;0.43;;
75417;SDS011;63997;52.112;5.420;2023-04-24T12:48:10;3.05;;;0.45;;
75417;SDS011;63997;52.112;5.420;2023-04-24T12:50:37;3.58;;;0.43;;
75417;SDS011;63997;52.112;5.420;2023-04-24T12:53:04;2.35;;;0.88;;
75417;SDS011;63997;52.112;5.420;2023-04-24T12:55:31;5.50;;;0.70;;
75417;SDS011;63997;52.112;5.420;2023-04-24T12:57:58;2.65;;;0.40;;
75417;SDS011;63997;52.112;5.420;2023-04-24T13:00:24;5.47;;;0.80;;
75417;SDS011;63997;52.112;5.420;2023-04-24T13:02:50;4.30;;;0.73;;
75417;SDS011;63997;52.112;5.420;2023-04-24T13:05:17;3.60;;;0.73;;
75417;SDS011;63997;52.112;5.420;2023-04-24T13:07:44;3.53;;;0.77;;
75417;SDS011;63997;52.112;5.420;2023-04-24T13:10:10;4.75;;;0.55;;
75417;SDS011;63997;52.112;5.420;2023-04-24T13:12:37;3.78;;;0.50;;
75417;SDS011;63997;52.112;5.420;2023-04-24T13:15:05;7.25;;;1.42;;
75417;SDS011;63997;52.112;5.420;2023-04-24T13:17:32;6.30;;;1.08;;
75417;SDS011;63997;52.112;5.420;2023-04-24T13:19:59;6.63;;;0.80;;
75417;SDS011;63997;52.112;5.420;2023-04-24T13:22:25;6.82;;;0.80;;
75417;SDS011;63997;52.112;5.420;2023-04-24T13:24:52;6.75;;;0.98;;
75417;SDS011;63997;52.112;5.420;2023-04-24T13:27:18;3.67;;;1.02;;
75417;SDS011;63997;52.112;5.420;2023-04-24T13:29:45;5.57;;;1.45;;
75417;SDS011;63997;52.112;5.420;2023-04-24T13:32:11;6.77;;;0.90;;
75417;SDS011;63997;52.112;5.420;2023-04-24T13:34:38;3.70;;;0.70;;
75417;SDS011;63997;52.112;5.420;2023-04-24T13:37:04;7.28;;;1.15;;
75417;SDS011;63997;52.112;5.420;2023-04-24T13:39:31;13.27;;;1.38;;
75417;SDS011;63997;52.112;5.420;2023-04-24T13:41:58;5.25;;;1.00;;
75417;SDS011;63997;52.112;5.420;2023-04-24T13:44:26;7.77;;;1.00;;
75417;SDS011;63997;52.112;5.420;2023-04-24T13:46:53;9.77;;;1.85;;
75417;SDS011;63997;52.112;5.420;2023-04-24T13:49:23;6.78;;;2.25;;
75417;SDS011;63997;52.112;5.420;2023-04-24T13:51:53;9.05;;;1.05;;
75417;SDS011;63997;52.112;5.420;2023-04-24T13:54:20;4.78;;;1.48;;
75417;SDS011;63997;52.112;5.420;2023-04-24T13:56:49;5.23;;;1.07;;
75417;SDS011;63997;52.112;5.420;2023-04-24T13:59:16;5.45;;;1.02;;
75417;SDS011;63997;52.112;5.420;2023-04-24T14:01:42;4.18;;;1.17;;
75417;SDS011;63997;52.112;5.420;2023-04-24T14:04:11;6.50;;;0.82;;
75417;SDS011;63997;52.112;5.420;2023-04-24T14:06:37;8.65;;;0.95;;
75417;SDS011;63997;52.112;5.420;2023-04-24T14:09:04;6.00;;;1.53;;
75417;SDS011;63997;52.112;5.420;2023-04-24T14:11:30;5.10;;;1.35;;
75417;SDS011;63997;52.112;5.420;2023-04-24T14:13:57;5.82;;;1.30;;
75417;SDS011;63997;52.112;5.420;2023-04-24T14:16:23;9.43;;;1.92;;
75417;SDS011;63997;52.112;5.420;2023-04-24T14:18:50;6.53;;;1.27;;
75417;SDS011;63997;52.112;5.420;2023-04-24T14:21:18;6.93;;;1.30;;
75417;SDS011;63997;52.112;5.420;2023-04-24T14:23:44;10.18;;;1.63;;
75417;SDS011;63997;52.112;5.420;2023-04-24T14:26:11;9.45;;;1.67;;
75417;SDS011;63997;52.112;5.420;2023-04-24T14:28:38;9.43;;;1.42;;
75417;SDS011;63997;52.112;5.420;2023-04-24T14:31:04;6.20;;;1.17;;
75417;SDS011;63997;52.112;5.420;2023-04-24T14:33:31;6.30;;;1.57;;
75417;SDS011;63997;52.112;5.420;2023-04-24T14:35:57;5.55;;;1.60;;
75417;SDS011;63997;52.112;5.420;2023-04-24T14:38:25;7.10;;;1.65;;
75417;SDS011;63997;52.112;5.420;2023-04-24T14:40:51;4.43;;;1.20;;
75417;SDS011;63997;52.112;5.420;2023-04-24T14:43:32;9.35;;;1.25;;
75417;SDS011;63997;52.112;5.420;2023-04-24T14:46:01;5.07;;;1.03;;
75417;SDS011;63997;52.112;5.420;2023-04-24T14:48:28;6.78;;;1.60;;
75417;SDS011;63997;52.112;5.420;2023-04-24T14:50:54;9.02;;;1.60;;
75417;SDS011;63997;52.112;5.420;2023-04-24T14:53:21;10.77;;;2.03;;
75417;SDS011;63997;52.112;5.420;2023-04-24T14:55:47;6.28;;;1.55;;